createdAt,value
2019-05-19T00:01:54.382Z,11.46
2019-05-19T00:04:21.563Z,11.40
2019-05-19T00:06:48.308Z,11.36
2019-05-19T00:09:16.708Z,11.34
2019-05-19T00:11:43.877Z,11.24
2019-05-19T00:14:10.581Z,11.18
2019-05-19T00:16:37.266Z,11.14
2019-05-19T00:19:04.154Z,11.21
2019-05-19T00:21:30.848Z,11.02
2019-05-19T00:23:59.781Z,11.00
2019-05-19T00:26:26.639Z,11.11
2019-05-19T00:28:53.447Z,11.15
2019-05-19T00:31:21.326Z,11.21
2019-05-19T00:33:48.226Z,11.24
2019-05-19T00:36:14.972Z,11.28
2019-05-19T00:38:41.729Z,11.31
2019-05-19T00:41:08.487Z,11.35
2019-05-19T00:43:35.240Z,11.38
2019-05-19T00:46:03.319Z,11.36
2019-05-19T00:48:30.160Z,11.36
2019-05-19T00:50:56.926Z,11.39
2019-05-19T00:53:23.647Z,11.35
2019-05-19T00:55:50.823Z,11.35
2019-05-19T00:58:18.405Z,11.34
2019-05-19T01:00:45.095Z,11.33
2019-05-19T01:03:11.967Z,11.27
2019-05-19T01:05:38.709Z,11.30
2019-05-19T01:08:05.490Z,11.37
2019-05-19T01:10:32.234Z,11.46
2019-05-19T01:12:58.898Z,11.46
2019-05-19T01:15:25.583Z,11.44
2019-05-19T01:17:52.605Z,11.49
2019-05-19T01:20:20.636Z,11.52
2019-05-19T01:22:47.309Z,11.54
2019-05-19T01:25:14.255Z,11.54
2019-05-19T01:27:41.049Z,11.58
2019-05-19T01:30:09.137Z,11.56
2019-05-19T01:32:35.890Z,11.56
2019-05-19T01:35:04.146Z,11.57
2019-05-19T01:37:30.927Z,11.61
2019-05-19T01:39:57.669Z,11.64
2019-05-19T01:42:24.453Z,11.62
2019-05-19T01:44:51.331Z,11.63
2019-05-19T01:47:18.166Z,11.50
2019-05-19T01:49:44.996Z,11.56
2019-05-19T01:52:11.669Z,11.51
2019-05-19T01:54:38.420Z,11.46
2019-05-19T01:57:05.102Z,11.47
2019-05-19T01:59:31.791Z,11.42
2019-05-19T02:01:58.539Z,11.38
2019-05-19T02:04:25.200Z,11.42
2019-05-19T02:06:51.916Z,11.36
2019-05-19T02:09:18.735Z,11.34
2019-05-19T02:11:45.501Z,11.29
2019-05-19T02:14:12.269Z,11.28
2019-05-19T02:16:39.091Z,11.25
2019-05-19T02:19:05.773Z,11.23
2019-05-19T02:21:32.718Z,11.11
2019-05-19T02:23:59.459Z,11.01
2019-05-19T02:26:26.149Z,11.08
2019-05-19T02:28:52.902Z,11.07
2019-05-19T02:31:19.657Z,11.09
2019-05-19T02:33:46.355Z,11.00
2019-05-19T02:36:13.096Z,10.91
2019-05-19T02:38:40.087Z,10.88
2019-05-19T02:41:08.891Z,10.86
2019-05-19T02:43:36.544Z,10.84
2019-05-19T02:46:03.753Z,10.80
2019-05-19T02:48:32.049Z,10.81
2019-05-19T02:51:01.048Z,10.80
2019-05-19T02:53:29.334Z,10.67
2019-05-19T02:55:57.030Z,10.59
2019-05-19T02:58:24.610Z,10.64
2019-05-19T03:00:51.324Z,10.62
2019-05-19T03:03:18.019Z,10.61
2019-05-19T03:05:44.781Z,10.52
2019-05-19T03:08:11.475Z,10.50
2019-05-19T03:10:38.152Z,10.51
2019-05-19T03:13:04.812Z,10.48
2019-05-19T03:15:31.533Z,10.42
2019-05-19T03:17:58.202Z,10.41
2019-05-19T03:20:24.961Z,10.40
2019-05-19T03:22:51.731Z,10.39
2019-05-19T03:25:18.647Z,10.40
2019-05-19T03:27:45.330Z,10.39
2019-05-19T03:30:32.753Z,10.46
2019-05-19T03:33:13.354Z,10.52
2019-05-19T03:35:40.154Z,10.53
2019-05-19T03:38:06.822Z,10.48
2019-05-19T03:40:33.600Z,10.50
2019-05-19T03:43:00.269Z,10.49
2019-05-19T03:45:26.962Z,10.50
2019-05-19T03:47:53.644Z,10.49
2019-05-19T03:50:20.603Z,10.54
2019-05-19T03:52:47.444Z,10.59
2019-05-19T03:55:14.254Z,10.68
2019-05-19T03:57:41.049Z,10.85
2019-05-19T04:00:08.481Z,11.31
2019-05-19T04:02:35.116Z,11.37
2019-05-19T04:05:01.962Z,11.39
2019-05-19T04:07:28.683Z,11.37
2019-05-19T04:09:55.492Z,11.38
2019-05-19T04:12:22.182Z,11.42
2019-05-19T04:14:48.873Z,11.48
2019-05-19T04:17:15.643Z,11.53
2019-05-19T04:19:42.437Z,11.63
2019-05-19T04:22:09.124Z,11.78
2019-05-19T04:24:39.480Z,11.90
2019-05-19T04:27:06.131Z,11.98
2019-05-19T04:29:33.163Z,12.08
2019-05-19T04:31:59.837Z,12.60
2019-05-19T04:34:26.560Z,12.91
2019-05-19T04:36:53.258Z,13.00
2019-05-19T04:39:20.021Z,13.05
2019-05-19T04:41:46.694Z,13.01
2019-05-19T04:44:13.397Z,13.14
2019-05-19T04:46:40.163Z,13.27
2019-05-19T04:49:06.915Z,13.49
2019-05-19T04:51:33.614Z,13.91
2019-05-19T04:54:00.313Z,14.48
2019-05-19T04:56:27.014Z,14.93
2019-05-19T04:58:53.828Z,15.38
2019-05-19T05:01:20.495Z,15.51
2019-05-19T05:03:47.192Z,15.51
2019-05-19T05:06:13.860Z,15.65
2019-05-19T05:08:40.607Z,16.00
2019-05-19T05:11:07.277Z,15.80
2019-05-19T05:13:34.092Z,15.94
2019-05-19T05:16:00.851Z,15.94
2019-05-19T05:18:27.677Z,15.99
2019-05-19T05:20:54.436Z,16.04
2019-05-19T05:23:21.161Z,15.98
2019-05-19T05:25:47.862Z,15.87
2019-05-19T05:28:14.753Z,16.13
2019-05-19T05:30:41.441Z,16.41
2019-05-19T05:33:08.606Z,16.67
2019-05-19T05:35:35.287Z,17.32
2019-05-19T05:38:02.252Z,17.74
2019-05-19T05:40:29.033Z,18.43
2019-05-19T05:42:55.718Z,18.62
2019-05-19T05:45:22.801Z,18.68
2019-05-19T05:47:49.492Z,18.80
2019-05-19T05:50:16.413Z,18.90
2019-05-19T05:52:43.151Z,18.96
2019-05-19T05:55:09.962Z,19.05
2019-05-19T05:57:36.729Z,19.12
2019-05-19T06:00:06.065Z,19.15
2019-05-19T06:02:32.783Z,19.35
2019-05-19T06:04:59.504Z,19.42
2019-05-19T06:07:26.275Z,19.41
2019-05-19T06:09:53.326Z,19.29
2019-05-19T06:12:20.015Z,18.87
2019-05-19T06:14:46.761Z,19.37
2019-05-19T06:17:13.552Z,19.25
2019-05-19T06:19:40.232Z,19.30
2019-05-19T06:22:07.088Z,19.66
2019-05-19T06:24:33.774Z,19.79
2019-05-19T06:27:00.467Z,19.88
2019-05-19T06:29:27.238Z,20.65
2019-05-19T06:31:55.742Z,20.55
2019-05-19T06:34:22.455Z,20.54
2019-05-19T06:36:49.193Z,20.65
2019-05-19T06:39:15.968Z,20.46
2019-05-19T06:41:42.737Z,20.30
2019-05-19T06:44:09.500Z,20.43
2019-05-19T06:46:36.193Z,20.52
2019-05-19T06:49:03.026Z,20.38
2019-05-19T06:51:30.139Z,20.29
2019-05-19T06:53:56.811Z,20.13
2019-05-19T06:56:23.510Z,20.40
2019-05-19T06:58:50.239Z,20.50
2019-05-19T07:01:16.910Z,20.91
2019-05-19T07:03:43.593Z,20.95
2019-05-19T07:06:10.290Z,20.82
2019-05-19T07:11:03.538Z,20.70
2019-05-19T07:13:30.438Z,20.86
2019-05-19T07:15:57.143Z,20.86
2019-05-19T07:18:23.809Z,20.95
2019-05-19T07:20:50.896Z,21.13
2019-05-19T07:23:27.782Z,21.16
2019-05-19T07:25:46.167Z,21.07
2019-05-19T07:28:12.972Z,21.29
2019-05-19T07:30:39.697Z,21.60
2019-05-19T07:33:06.491Z,21.67
2019-05-19T07:35:33.249Z,21.83
2019-05-19T07:37:59.948Z,21.90
2019-05-19T07:40:26.616Z,22.11
2019-05-19T07:42:53.356Z,22.21
2019-05-19T07:45:20.401Z,22.29
2019-05-19T07:47:47.148Z,22.29
2019-05-19T07:50:13.970Z,22.31
2019-05-19T07:52:40.738Z,22.28
2019-05-19T07:55:07.579Z,22.35
2019-05-19T07:57:34.316Z,21.99
2019-05-19T08:00:01.002Z,21.99
2019-05-19T08:02:27.785Z,22.04
2019-05-19T08:04:54.514Z,22.06
2019-05-19T08:07:22.367Z,22.01
2019-05-19T08:09:49.053Z,22.24
2019-05-19T08:12:16.997Z,22.34
2019-05-19T08:14:43.718Z,22.27
2019-05-19T08:17:10.391Z,22.14
2019-05-19T08:19:37.134Z,22.19
2019-05-19T08:22:03.810Z,22.35
2019-05-19T08:24:30.522Z,22.51
2019-05-19T08:26:57.296Z,22.41
2019-05-19T08:29:24.121Z,22.55
2019-05-19T08:31:50.925Z,22.57
2019-05-19T08:34:18.450Z,22.70
2019-05-19T08:36:45.160Z,22.79
2019-05-19T08:39:11.829Z,22.92
2019-05-19T08:41:38.567Z,23.00
2019-05-19T08:44:05.692Z,22.93
2019-05-19T08:46:32.445Z,22.91
2019-05-19T08:48:59.203Z,22.90
2019-05-19T08:51:25.881Z,22.95
2019-05-19T08:53:52.567Z,23.21
2019-05-19T08:56:19.393Z,23.29
2019-05-19T08:58:46.091Z,23.36
2019-05-19T09:01:12.778Z,23.35
2019-05-19T09:03:39.525Z,23.41
2019-05-19T09:06:06.237Z,23.54
2019-05-19T09:08:33.032Z,23.42
2019-05-19T09:10:59.758Z,23.35
2019-05-19T09:13:26.549Z,23.66
2019-05-19T09:15:53.715Z,23.65
2019-05-19T09:18:20.416Z,23.76
2019-05-19T09:20:47.130Z,23.68
2019-05-19T09:23:13.882Z,23.88
2019-05-19T09:25:40.619Z,24.02
2019-05-19T09:28:08.472Z,23.97
2019-05-19T09:30:35.259Z,24.05
2019-05-19T09:33:01.966Z,24.23
2019-05-19T09:35:28.639Z,24.10
2019-05-19T09:37:55.372Z,23.90
2019-05-19T09:40:22.052Z,23.74
2019-05-19T09:42:48.717Z,23.78
2019-05-19T09:45:16.031Z,23.65
2019-05-19T09:47:42.932Z,23.67
2019-05-19T09:50:10.161Z,23.42
2019-05-19T09:52:36.858Z,23.36
2019-05-19T09:55:05.183Z,23.49
2019-05-19T09:57:32.018Z,23.42
2019-05-19T09:59:58.699Z,23.46
2019-05-19T10:02:25.382Z,23.50
2019-05-19T10:04:52.290Z,23.50
2019-05-19T10:07:20.053Z,23.51
2019-05-19T10:09:57.554Z,23.90
2019-05-19T10:12:24.195Z,24.24
2019-05-19T10:14:50.885Z,24.31
2019-05-19T10:17:17.533Z,24.35
2019-05-19T10:19:44.273Z,24.17
2019-05-19T10:22:10.930Z,24.07
2019-05-19T10:24:37.702Z,24.05
2019-05-19T10:27:04.471Z,24.10
2019-05-19T10:29:31.306Z,23.99
2019-05-19T10:31:58.001Z,24.02
2019-05-19T10:34:24.701Z,23.79
2019-05-19T10:36:51.530Z,23.91
2019-05-19T10:39:18.283Z,24.13
2019-05-19T10:41:44.952Z,24.14
2019-05-19T10:44:11.643Z,24.17
2019-05-19T10:46:38.413Z,24.07
2019-05-19T10:49:05.534Z,24.00
2019-05-19T10:51:32.225Z,24.01
2019-05-19T10:53:58.992Z,24.12
2019-05-19T10:56:25.729Z,24.35
2019-05-19T10:58:52.437Z,24.52
2019-05-19T11:01:19.259Z,24.64
2019-05-19T11:03:45.908Z,24.58
2019-05-19T11:06:12.653Z,24.29
2019-05-19T11:08:39.730Z,24.47
2019-05-19T11:11:06.401Z,24.59
2019-05-19T11:13:33.104Z,24.58
2019-05-19T11:15:59.864Z,24.79
2019-05-19T11:18:26.623Z,24.75
2019-05-19T11:20:53.292Z,24.78
2019-05-19T11:23:20.063Z,24.79
2019-05-19T11:25:51.627Z,24.82
2019-05-19T11:28:15.382Z,24.84
2019-05-19T11:30:42.215Z,24.89
2019-05-19T11:33:09.007Z,24.78
2019-05-19T11:35:35.729Z,24.67
2019-05-19T11:38:02.499Z,24.50
2019-05-19T11:40:29.186Z,24.58
2019-05-19T11:42:55.914Z,24.56
2019-05-19T11:45:22.613Z,24.37
2019-05-19T11:47:49.339Z,24.34
2019-05-19T11:50:16.186Z,24.39
2019-05-19T11:52:42.883Z,24.04
2019-05-19T11:55:09.577Z,24.12
2019-05-19T11:57:36.338Z,24.19
2019-05-19T12:00:04.986Z,24.28
2019-05-19T12:02:31.748Z,24.20
2019-05-19T12:04:58.546Z,24.31
2019-05-19T12:07:25.441Z,24.51
2019-05-19T12:09:52.115Z,24.70
2019-05-19T12:12:18.912Z,24.71
2019-05-19T12:14:45.605Z,24.92
2019-05-19T12:17:12.390Z,25.07
2019-05-19T12:19:39.112Z,24.80
2019-05-19T12:22:05.835Z,24.95
2019-05-19T12:24:33.520Z,25.01
2019-05-19T12:27:00.222Z,24.96
2019-05-19T12:29:26.894Z,24.84
2019-05-19T12:31:53.560Z,24.80
2019-05-19T12:34:21.411Z,24.55
2019-05-19T12:36:48.766Z,24.31
2019-05-19T12:39:20.574Z,24.02
2019-05-19T12:41:58.896Z,24.22
2019-05-19T12:44:25.609Z,24.04
2019-05-19T12:46:52.324Z,23.76
2019-05-19T12:49:19.050Z,23.65
2019-05-19T12:51:45.842Z,23.51
2019-05-19T12:54:13.338Z,23.36
2019-05-19T12:56:40.407Z,23.10
2019-05-19T12:59:07.207Z,22.78
2019-05-19T13:01:33.939Z,22.83
2019-05-19T13:04:00.678Z,23.10
2019-05-19T13:06:27.469Z,22.96
2019-05-19T13:08:54.163Z,22.89
2019-05-19T13:11:21.072Z,22.82
2019-05-19T13:13:47.862Z,22.91
2019-05-19T13:16:15.577Z,23.03
2019-05-19T13:18:42.350Z,23.05
2019-05-19T13:21:09.107Z,23.12
2019-05-19T13:23:35.803Z,23.01
2019-05-19T13:26:02.611Z,23.14
2019-05-19T13:28:29.295Z,23.08
2019-05-19T13:30:55.982Z,23.17
2019-05-19T13:33:22.732Z,23.19
2019-05-19T13:35:49.489Z,23.17
2019-05-19T13:38:16.174Z,23.00
2019-05-19T13:40:42.897Z,22.99
2019-05-19T13:43:09.645Z,22.93
2019-05-19T13:45:36.425Z,22.92
2019-05-19T13:48:03.269Z,22.85
2019-05-19T13:50:30.151Z,22.73
2019-05-19T13:52:56.932Z,22.74
2019-05-19T13:55:23.617Z,22.64
2019-05-19T13:57:50.367Z,22.27
2019-05-19T14:00:17.041Z,22.37
2019-05-19T14:02:43.914Z,22.36
2019-05-19T14:05:11.077Z,22.24
2019-05-19T14:07:37.745Z,22.16
2019-05-19T14:10:05.741Z,22.04
2019-05-19T14:12:32.674Z,22.06
2019-05-19T14:14:59.656Z,22.04
2019-05-19T14:17:26.430Z,22.03
2019-05-19T14:19:53.269Z,21.79
2019-05-19T14:22:20.143Z,21.89
2019-05-19T14:24:46.908Z,22.08
2019-05-19T14:27:28.426Z,22.11
2019-05-19T14:29:42.323Z,22.16
2019-05-19T14:32:09.100Z,22.14
2019-05-19T14:34:35.912Z,21.74
2019-05-19T14:37:02.576Z,21.79
2019-05-19T14:39:29.295Z,21.74
2019-05-19T14:41:57.822Z,21.62
2019-05-19T14:44:24.515Z,21.75
2019-05-19T14:46:51.456Z,21.77
2019-05-19T14:49:18.220Z,21.74
2019-05-19T14:51:44.929Z,21.74
2019-05-19T14:54:11.594Z,21.62
2019-05-19T14:56:38.463Z,21.63
2019-05-19T14:59:05.231Z,21.32
2019-05-19T15:01:32.003Z,21.29
2019-05-19T15:03:59.202Z,21.13
2019-05-19T15:06:25.861Z,20.79
2019-05-19T15:08:52.562Z,20.96
2019-05-19T15:11:19.388Z,20.94
2019-05-19T15:13:46.094Z,21.01
2019-05-19T15:16:12.801Z,20.87
2019-05-19T15:18:39.563Z,20.89
2019-05-19T15:21:06.256Z,21.02
2019-05-19T15:23:32.989Z,20.77
2019-05-19T15:25:59.776Z,20.79
2019-05-19T15:28:26.452Z,20.90
2019-05-19T15:30:53.473Z,20.79
2019-05-19T15:33:20.180Z,20.86
2019-05-19T15:35:46.965Z,21.00
2019-05-19T15:38:13.706Z,20.86
2019-05-19T15:40:40.406Z,21.12
2019-05-19T15:43:07.110Z,21.35
2019-05-19T15:45:33.913Z,21.43
2019-05-19T15:48:00.590Z,21.47
2019-05-19T15:50:27.306Z,21.43
2019-05-19T15:52:54.111Z,21.51
2019-05-19T15:55:20.912Z,21.36
2019-05-19T15:57:47.922Z,21.26
2019-05-19T16:00:15.951Z,21.19
2019-05-19T16:02:42.723Z,21.07
2019-05-19T16:05:09.684Z,20.96
2019-05-19T16:07:36.527Z,21.20
2019-05-19T16:10:06.723Z,21.11
2019-05-19T16:12:33.525Z,21.12
2019-05-19T16:15:00.334Z,20.89
2019-05-19T16:17:27.041Z,20.72
2019-05-19T16:19:53.746Z,20.80
2019-05-19T16:22:20.486Z,20.84
2019-05-19T16:24:47.284Z,20.93
2019-05-19T16:27:13.977Z,20.82
2019-05-19T16:29:41.934Z,20.75
2019-05-19T16:32:08.831Z,20.71
2019-05-19T16:34:35.638Z,20.83
2019-05-19T16:37:02.704Z,20.86
2019-05-19T16:41:57.076Z,20.78
2019-05-19T16:44:23.845Z,20.69
2019-05-19T16:46:50.532Z,20.77
2019-05-19T16:49:17.303Z,20.82
2019-05-19T16:51:43.985Z,20.86
2019-05-19T16:54:15.541Z,20.72
2019-05-19T16:56:42.217Z,20.78
2019-05-19T16:59:09.989Z,20.56
2019-05-19T17:01:36.721Z,20.38
2019-05-19T17:04:03.679Z,20.30
2019-05-19T17:06:30.413Z,20.23
2019-05-19T17:08:59.118Z,20.20
2019-05-19T17:11:26.098Z,20.26
2019-05-19T17:13:52.870Z,20.12
2019-05-19T17:16:20.568Z,20.01
2019-05-19T17:18:47.343Z,19.71
2019-05-19T17:21:14.095Z,19.78
2019-05-19T17:23:40.762Z,19.67
2019-05-19T17:26:07.524Z,19.53
2019-05-19T17:28:34.692Z,19.39
2019-05-19T17:31:01.386Z,19.29
2019-05-19T17:33:28.081Z,19.01
2019-05-19T17:35:54.798Z,19.01
2019-05-19T17:38:21.546Z,18.86
2019-05-19T17:40:48.292Z,18.68
2019-05-19T17:43:15.409Z,18.59
2019-05-19T17:45:42.143Z,18.43
2019-05-19T17:48:11.690Z,18.32
2019-05-19T17:50:37.540Z,18.25
2019-05-19T17:53:04.500Z,18.08
2019-05-19T17:55:33.034Z,17.73
2019-05-19T17:58:01.234Z,17.74
2019-05-19T18:00:40.041Z,17.76
2019-05-19T18:03:07.319Z,17.57
2019-05-19T18:05:34.416Z,17.32
2019-05-19T18:08:01.504Z,17.36
2019-05-19T18:10:28.663Z,17.28
2019-05-19T18:12:55.643Z,17.29
2019-05-19T18:15:22.458Z,17.23
2019-05-19T18:17:49.214Z,17.11
2019-05-19T18:20:23.733Z,17.10
2019-05-19T18:22:45.800Z,16.93
2019-05-19T18:25:12.571Z,16.84
2019-05-19T18:27:39.264Z,16.78
2019-05-19T18:30:06.170Z,16.64
2019-05-19T18:32:33.013Z,16.58
2019-05-19T18:34:59.694Z,16.63
2019-05-19T18:37:26.488Z,16.73
2019-05-19T18:39:53.269Z,16.43
2019-05-19T18:42:20.608Z,16.58
2019-05-19T18:44:47.508Z,16.54
2019-05-19T18:47:14.710Z,16.62
2019-05-19T18:49:41.686Z,16.64
2019-05-19T18:52:08.451Z,16.70
2019-05-19T18:54:35.163Z,16.73
2019-05-19T18:57:02.176Z,16.61
2019-05-19T18:59:29.070Z,16.87
2019-05-19T19:01:55.766Z,17.05
2019-05-19T19:04:22.767Z,17.34
2019-05-19T19:06:49.582Z,17.29
2019-05-19T19:09:16.284Z,17.53
2019-05-19T19:11:43.070Z,17.17
2019-05-19T19:14:09.942Z,17.27
2019-05-19T19:16:36.691Z,17.01
2019-05-19T19:19:03.516Z,17.04
2019-05-19T19:21:30.282Z,16.90
2019-05-19T19:23:56.992Z,16.82
2019-05-19T19:26:23.844Z,16.53
2019-05-19T19:28:50.714Z,16.69
2019-05-19T19:31:17.495Z,16.66
2019-05-19T19:33:44.313Z,16.48
2019-05-19T19:36:11.130Z,16.74
2019-05-19T19:38:37.973Z,16.60
2019-05-19T19:41:04.711Z,16.60
2019-05-19T19:43:32.550Z,16.95
2019-05-19T19:45:59.348Z,16.95
2019-05-19T19:48:26.135Z,17.67
2019-05-19T19:50:53.090Z,18.20
2019-05-19T19:53:20.876Z,18.50
2019-05-19T19:55:47.690Z,18.29
2019-05-19T19:58:14.489Z,18.78
2019-05-19T20:00:43.185Z,19.43
2019-05-19T20:03:10.484Z,19.15
2019-05-19T20:05:39.782Z,18.76
2019-05-19T20:08:06.777Z,18.81
2019-05-19T20:10:35.159Z,19.07
2019-05-19T20:13:02.061Z,19.05
2019-05-19T20:15:28.828Z,18.60
2019-05-19T20:17:55.662Z,19.08
2019-05-19T20:20:24.149Z,19.14
2019-05-19T20:22:50.983Z,19.49
2019-05-19T20:25:17.774Z,19.57
2019-05-19T20:27:44.723Z,19.86
2019-05-19T20:30:11.841Z,19.41
2019-05-19T20:32:38.558Z,19.94
2019-05-19T20:35:05.657Z,20.12
2019-05-19T20:37:32.499Z,20.74
2019-05-19T20:39:59.176Z,20.56
2019-05-19T20:42:25.937Z,20.43
2019-05-19T20:44:52.600Z,20.55
2019-05-19T20:47:19.375Z,20.35
2019-05-19T20:49:46.036Z,20.55
2019-05-19T20:52:13.241Z,20.44
2019-05-19T20:54:40.095Z,20.65
2019-05-19T20:57:06.863Z,20.67
2019-05-19T20:59:33.642Z,20.58
2019-05-19T21:02:00.457Z,20.53
2019-05-19T21:04:27.303Z,20.50
2019-05-19T21:06:54.293Z,20.35
2019-05-19T21:09:21.112Z,20.19
2019-05-19T21:11:47.953Z,20.11
2019-05-19T21:14:14.644Z,20.06
2019-05-19T21:16:41.406Z,20.21
2019-05-19T21:19:09.944Z,20.16
2019-05-19T21:21:36.710Z,20.16
2019-05-19T21:24:03.652Z,20.03
2019-05-19T21:26:30.398Z,19.73
2019-05-19T21:28:57.162Z,19.64
2019-05-19T21:31:23.863Z,19.41
2019-05-19T21:33:50.570Z,19.17
2019-05-19T21:36:18.314Z,19.05
2019-05-19T21:38:45.446Z,19.03
2019-05-19T21:41:12.420Z,19.00
2019-05-19T21:43:39.159Z,18.84
2019-05-19T21:46:06.580Z,18.80
2019-05-19T21:48:34.338Z,18.79
2019-05-19T21:51:01.571Z,18.76
2019-05-19T21:53:28.441Z,18.75
2019-05-19T21:55:55.355Z,18.60
2019-05-19T21:58:22.187Z,18.52
2019-05-19T22:00:49.358Z,18.41
2019-05-19T22:03:16.843Z,18.32
2019-05-19T22:05:52.922Z,18.29
2019-05-19T22:08:18.441Z,18.27
2019-05-19T22:10:45.302Z,18.30
2019-05-19T22:13:12.304Z,18.27
2019-05-19T22:15:38.999Z,18.26
2019-05-19T22:18:05.856Z,18.18
2019-05-19T22:20:32.702Z,18.16
2019-05-19T22:22:59.443Z,18.02
2019-05-19T22:25:26.148Z,17.85
2019-05-19T22:27:52.827Z,17.96
2019-05-19T22:30:20.052Z,17.86
2019-05-19T22:32:48.655Z,17.93
2019-05-19T22:35:15.368Z,17.98
2019-05-19T22:37:42.066Z,18.01
2019-05-19T22:40:09.408Z,18.03
2019-05-19T22:42:36.154Z,18.08
2019-05-19T22:45:06.534Z,18.05
2019-05-19T22:47:33.213Z,18.06
2019-05-19T22:50:00.030Z,18.00
2019-05-19T22:52:26.928Z,18.00
2019-05-19T22:54:53.662Z,17.98
2019-05-19T22:57:20.433Z,17.90
2019-05-19T22:59:47.161Z,17.85
2019-05-19T23:02:13.851Z,17.84
2019-05-19T23:04:40.817Z,17.70
2019-05-19T23:07:07.486Z,17.80
2019-05-19T23:09:34.276Z,17.78
2019-05-19T23:12:00.979Z,17.74
2019-05-19T23:14:27.893Z,17.58
2019-05-19T23:16:54.578Z,17.59
2019-05-19T23:19:21.363Z,17.74
2019-05-19T23:21:48.127Z,17.66
2019-05-19T23:24:14.926Z,17.74
2019-05-19T23:26:41.907Z,17.80
2019-05-19T23:29:08.607Z,17.90
2019-05-19T23:31:35.363Z,17.91
2019-05-19T23:34:02.145Z,17.92
2019-05-19T23:36:28.821Z,17.98
2019-05-19T23:38:55.562Z,17.90
2019-05-19T23:41:22.241Z,17.89
2019-05-19T23:43:48.939Z,17.96
2019-05-19T23:46:15.644Z,17.89
2019-05-19T23:48:42.388Z,17.80
2019-05-19T23:51:09.182Z,17.73
2019-05-19T23:53:35.942Z,17.66
2019-05-19T23:56:03.009Z,17.63
2019-05-19T23:58:29.685Z,17.45
